createdAt,value
2023-11-07T00:01:29.076Z,98864.86
2023-11-07T00:04:08.629Z,98861.27
2023-11-07T00:06:35.695Z,98862.61
2023-11-07T00:09:03.136Z,98864.66
2023-11-07T00:11:30.097Z,98863.77
2023-11-07T00:13:57.030Z,98868.85
2023-11-07T00:16:26.254Z,98869.89
2023-11-07T00:18:53.176Z,98871.12
2023-11-07T00:21:22.991Z,98871.75
2023-11-07T00:23:49.969Z,98873.79
2023-11-07T00:26:18.964Z,98869.86
2023-11-07T00:28:47.927Z,98872.95
2023-11-07T00:31:14.853Z,98878.16
2023-11-07T00:33:41.707Z,98874.67
2023-11-07T00:36:12.052Z,98877.50
2023-11-07T00:38:42.243Z,98880.30
2023-11-07T00:41:09.323Z,98880.52
2023-11-07T00:43:36.229Z,98881.64
2023-11-07T00:46:04.180Z,98884.91
2023-11-07T00:48:31.227Z,98892.14
2023-11-07T00:51:00.444Z,98890.05
2023-11-07T00:53:27.916Z,98892.16
2023-11-07T00:55:54.849Z,98895.48
2023-11-07T00:58:21.749Z,98897.39
2023-11-07T01:00:49.209Z,98896.75
2023-11-07T01:03:16.204Z,98896.48
2023-11-07T01:05:43.259Z,98891.86
2023-11-07T01:08:10.217Z,98892.55
2023-11-07T01:10:37.050Z,98891.20
2023-11-07T01:13:04.297Z,98892.84
2023-11-07T01:15:31.165Z,98895.31
2023-11-07T01:17:58.310Z,98895.76
2023-11-07T01:20:25.415Z,98894.44
2023-11-07T01:22:52.423Z,98892.77
2023-11-07T01:25:19.428Z,98892.45
2023-11-07T01:27:46.318Z,98893.73
2023-11-07T01:30:14.017Z,98894.41
2023-11-07T01:32:43.021Z,98898.11
2023-11-07T01:35:10.201Z,98899.56
2023-11-07T01:37:37.182Z,98897.73
2023-11-07T01:40:04.906Z,98896.02
2023-11-07T01:42:32.005Z,98898.02
2023-11-07T01:45:00.333Z,98902.13
2023-11-07T01:47:27.292Z,98902.34
2023-11-07T01:49:54.307Z,98900.09
2023-11-07T01:52:21.858Z,98895.44
2023-11-07T01:54:52.741Z,98892.23
2023-11-07T01:57:20.368Z,98892.51
2023-11-07T01:59:48.790Z,98892.98
2023-11-07T02:02:18.704Z,98890.77
2023-11-07T02:04:47.214Z,98885.00
2023-11-07T02:07:14.366Z,98882.14
2023-11-07T02:09:45.720Z,98883.42
2023-11-07T02:12:13.337Z,98884.52
2023-11-07T02:14:40.448Z,98888.50
2023-11-07T02:17:07.587Z,98886.52
2023-11-07T02:19:34.757Z,98889.14
2023-11-07T02:22:02.207Z,98891.33
2023-11-07T02:24:29.733Z,98889.55
2023-11-07T02:26:57.863Z,98887.55
2023-11-07T02:29:25.355Z,98885.37
2023-11-07T02:31:52.429Z,98892.59
2023-11-07T02:34:19.316Z,98891.86
2023-11-07T02:36:46.825Z,98894.21
2023-11-07T02:39:13.765Z,98893.99
2023-11-07T02:41:41.057Z,98892.02
2023-11-07T02:44:09.721Z,98891.43
2023-11-07T02:46:42.369Z,98887.96
2023-11-07T02:49:10.904Z,98892.00
2023-11-07T02:51:39.047Z,98892.89
2023-11-07T02:54:06.307Z,98895.73
2023-11-07T02:56:34.097Z,98894.89
2023-11-07T02:59:00.999Z,98895.98
2023-11-07T03:01:28.023Z,98897.10
2023-11-07T03:03:56.915Z,98898.48
2023-11-07T03:06:23.942Z,98901.41
2023-11-07T03:08:50.940Z,98902.27
2023-11-07T03:11:17.847Z,98900.97
2023-11-07T03:13:45.844Z,98902.44
2023-11-07T03:16:12.621Z,98903.23
2023-11-07T03:18:39.602Z,98902.15
2023-11-07T03:21:09.113Z,98903.31
2023-11-07T03:23:36.428Z,98904.13
2023-11-07T03:26:04.883Z,98905.80
2023-11-07T03:28:32.342Z,98904.61
2023-11-07T03:30:59.214Z,98907.80
2023-11-07T03:33:26.152Z,98909.78
2023-11-07T03:35:53.712Z,98911.82
2023-11-07T03:38:20.522Z,98910.30
2023-11-07T03:40:47.516Z,98903.56
2023-11-07T03:43:16.620Z,98899.91
2023-11-07T03:45:43.808Z,98898.64
2023-11-07T03:48:10.873Z,98901.42
2023-11-07T03:50:37.876Z,98899.30
2023-11-07T03:53:04.844Z,98902.67
2023-11-07T03:55:32.437Z,98904.44
2023-11-07T03:57:59.481Z,98902.65
2023-11-07T04:00:26.586Z,98902.79
2023-11-07T04:02:53.527Z,98900.20
2023-11-07T04:05:21.034Z,98897.41
2023-11-07T04:07:47.949Z,98897.31
2023-11-07T04:10:14.854Z,98899.81
2023-11-07T04:12:41.782Z,98899.73
2023-11-07T04:15:09.695Z,98902.42
2023-11-07T04:17:36.968Z,98907.86
2023-11-07T04:20:04.607Z,98906.64
2023-11-07T04:22:31.692Z,98907.25
2023-11-07T04:24:58.478Z,98909.36
2023-11-07T04:27:25.457Z,98911.23
2023-11-07T04:29:52.298Z,98913.84
2023-11-07T04:32:19.407Z,98913.11
2023-11-07T04:34:48.164Z,98911.96
2023-11-07T04:37:17.069Z,98913.90
2023-11-07T04:39:43.956Z,98914.94
2023-11-07T04:42:10.924Z,98916.02
2023-11-07T04:44:37.969Z,98912.93
2023-11-07T04:47:06.066Z,98911.73
2023-11-07T04:49:33.293Z,98909.07
2023-11-07T04:52:02.546Z,98907.88
2023-11-07T04:54:30.208Z,98910.48
2023-11-07T04:56:58.122Z,98911.59
2023-11-07T04:59:25.071Z,98913.64
2023-11-07T05:01:53.382Z,98914.66
2023-11-07T05:04:20.502Z,98918.23
2023-11-07T05:06:47.558Z,98917.58
2023-11-07T05:09:14.750Z,98918.63
2023-11-07T05:11:42.038Z,98920.17
2023-11-07T05:14:09.541Z,98918.88
2023-11-07T05:16:39.547Z,98914.53
2023-11-07T05:19:09.576Z,98912.55
2023-11-07T05:21:37.134Z,98914.49
2023-11-07T05:24:05.098Z,98916.04
2023-11-07T05:26:32.210Z,98914.23
2023-11-07T05:29:00.114Z,98917.70
2023-11-07T05:31:27.227Z,98917.80
2023-11-07T05:33:54.273Z,98920.59
2023-11-07T05:36:21.272Z,98922.21
2023-11-07T05:38:48.180Z,98920.48
2023-11-07T05:41:15.306Z,98922.73
2023-11-07T05:43:43.478Z,98928.28
2023-11-07T05:46:10.386Z,98931.21
2023-11-07T05:48:37.919Z,98931.23
2023-11-07T05:51:05.576Z,98934.90
2023-11-07T05:53:32.496Z,98941.50
2023-11-07T05:55:59.940Z,98951.36
2023-11-07T05:58:30.484Z,98957.23
2023-11-07T06:00:57.844Z,98960.31
2023-11-07T06:03:24.815Z,98961.29
2023-11-07T06:05:53.987Z,98964.48
2023-11-07T06:08:21.080Z,98966.39
2023-11-07T06:10:48.321Z,98965.41
2023-11-07T06:13:15.769Z,98966.21
2023-11-07T06:15:42.657Z,98969.41
2023-11-07T06:18:09.983Z,98973.02
2023-11-07T06:20:36.989Z,98978.70
2023-11-07T06:23:04.004Z,98982.23
2023-11-07T06:25:30.987Z,98986.29
2023-11-07T06:27:58.324Z,98988.55
2023-11-07T06:30:29.999Z,98991.34
2023-11-07T06:32:58.135Z,98993.89
2023-11-07T06:35:24.970Z,98994.77
2023-11-07T06:37:51.748Z,98998.15
2023-11-07T06:40:19.711Z,98998.09
2023-11-07T06:42:47.712Z,99000.91
2023-11-07T06:45:15.402Z,99002.42
2023-11-07T06:47:44.299Z,98999.15
2023-11-07T06:50:13.624Z,99002.71
2023-11-07T06:52:42.940Z,99005.77
2023-11-07T06:55:12.857Z,99004.79
2023-11-07T06:57:40.449Z,99007.60
2023-11-07T07:00:09.500Z,99009.70
2023-11-07T07:02:37.580Z,99011.21
2023-11-07T07:05:04.820Z,99017.84
2023-11-07T07:07:31.892Z,99019.60
2023-11-07T07:10:00.946Z,99012.48
2023-11-07T07:12:28.089Z,99011.50
2023-11-07T07:14:55.111Z,99009.59
2023-11-07T07:17:23.164Z,99007.79
2023-11-07T07:19:50.193Z,99007.71
2023-11-07T07:22:27.987Z,99009.69
2023-11-07T07:24:55.854Z,99009.34
2023-11-07T07:27:27.439Z,99011.75
2023-11-07T07:29:54.659Z,99013.48
2023-11-07T07:32:21.640Z,99017.52
2023-11-07T07:34:51.477Z,99017.24
2023-11-07T07:37:21.367Z,99016.43
2023-11-07T07:39:48.228Z,99020.68
2023-11-07T07:42:17.725Z,99020.66
2023-11-07T07:44:46.101Z,99022.27
2023-11-07T07:47:15.865Z,99021.86
2023-11-07T07:49:42.834Z,99018.13
2023-11-07T07:52:10.057Z,99016.30
2023-11-07T07:55:00.035Z,99018.04
2023-11-07T07:57:24.959Z,99019.73
2023-11-07T07:59:51.913Z,99024.14
2023-11-07T08:02:20.164Z,99023.70
2023-11-07T08:04:48.050Z,99024.98
2023-11-07T08:07:17.977Z,99027.73
2023-11-07T08:09:44.987Z,99027.69
2023-11-07T08:12:12.701Z,99026.60
2023-11-07T08:14:41.363Z,99026.55
2023-11-07T08:17:09.962Z,99023.75
2023-11-07T08:19:37.093Z,99020.57
2023-11-07T08:22:07.429Z,99019.96
2023-11-07T08:24:34.358Z,99019.39
2023-11-07T08:27:01.777Z,99018.20
2023-11-07T08:29:28.606Z,99020.88
2023-11-07T08:31:55.525Z,99020.96
2023-11-07T08:34:23.081Z,99022.18
2023-11-07T08:36:56.868Z,99023.61
2023-11-07T08:39:34.365Z,99025.39
2023-11-07T08:42:01.296Z,99022.08
2023-11-07T08:44:28.209Z,99018.46
2023-11-07T08:46:55.387Z,99018.77
2023-11-07T08:49:22.324Z,99018.05
2023-11-07T08:51:52.069Z,99015.11
2023-11-07T08:54:19.083Z,99016.58
2023-11-07T08:56:49.725Z,99014.33
2023-11-07T08:59:18.256Z,99016.54
2023-11-07T09:01:47.626Z,99020.63
2023-11-07T09:04:15.138Z,99024.19
2023-11-07T09:06:42.117Z,99020.66
2023-11-07T09:09:14.834Z,99021.64
2023-11-07T09:11:42.516Z,99019.77
2023-11-07T09:14:09.866Z,99021.98
2023-11-07T09:16:36.793Z,99028.11
2023-11-07T09:19:05.214Z,99029.12
2023-11-07T09:21:32.420Z,99031.04
2023-11-07T09:23:59.275Z,99033.12
2023-11-07T09:26:26.145Z,99025.44
2023-11-07T09:28:53.085Z,99026.36
2023-11-07T09:31:20.038Z,99020.29
2023-11-07T09:33:47.352Z,99019.15
2023-11-07T09:36:15.894Z,99020.23
2023-11-07T09:38:49.603Z,99023.70
2023-11-07T09:41:20.039Z,99022.94
2023-11-07T09:43:47.798Z,99026.10
2023-11-07T09:46:15.193Z,99025.17
2023-11-07T09:48:42.507Z,99028.12
2023-11-07T09:51:10.544Z,99031.23
2023-11-07T09:53:39.628Z,99028.94
2023-11-07T09:56:11.168Z,99033.44
2023-11-07T09:58:45.819Z,99031.44
2023-11-07T10:01:12.764Z,99030.13
2023-11-07T10:03:43.749Z,99024.38
2023-11-07T10:06:12.849Z,99020.15
2023-11-07T10:08:43.348Z,99021.89
2023-11-07T10:11:13.092Z,99018.56
2023-11-07T10:13:59.710Z,99015.17
2023-11-07T10:16:38.108Z,99010.09
2023-11-07T10:19:05.527Z,99008.70
2023-11-07T10:21:33.797Z,99006.95
2023-11-07T10:24:01.380Z,99005.16
2023-11-07T10:26:28.680Z,99005.63
2023-11-07T10:29:18.192Z,99001.50
2023-11-07T10:32:03.290Z,98998.69
2023-11-07T10:34:31.338Z,98999.56
2023-11-07T10:37:01.924Z,99001.45
2023-11-07T10:39:30.638Z,99001.61
2023-11-07T10:41:58.045Z,99001.29
2023-11-07T10:44:28.758Z,99000.20
2023-11-07T10:46:57.927Z,99000.10
2023-11-07T10:49:25.725Z,98997.29
2023-11-07T10:51:55.472Z,98991.54
2023-11-07T10:54:22.730Z,98987.89
2023-11-07T10:56:53.620Z,98985.92
2023-11-07T10:59:26.283Z,98978.88
2023-11-07T11:01:54.742Z,98981.02
2023-11-07T11:04:26.042Z,98980.73
2023-11-07T11:06:58.468Z,98979.35
2023-11-07T11:09:27.986Z,98981.52
2023-11-07T11:12:00.138Z,98984.89
2023-11-07T11:14:28.111Z,98983.51
2023-11-07T11:17:21.841Z,98985.08
2023-11-07T11:20:23.039Z,98984.14
2023-11-07T11:23:05.771Z,98983.09
2023-11-07T11:25:54.159Z,98982.80
2023-11-07T11:28:37.496Z,98980.33
2023-11-07T11:31:05.271Z,98976.18
2023-11-07T11:33:32.322Z,98974.45
2023-11-07T11:35:59.473Z,98972.35
2023-11-07T11:38:40.190Z,98971.72
2023-11-07T11:41:10.632Z,98971.45
2023-11-07T11:44:15.997Z,98971.16
2023-11-07T11:46:44.430Z,98970.77
2023-11-07T11:49:17.001Z,98971.27
2023-11-07T11:51:47.171Z,98973.84
2023-11-07T11:54:16.862Z,98975.40
2023-11-07T11:56:50.123Z,98974.22
2023-11-07T11:59:28.936Z,98973.08
2023-11-07T12:02:03.132Z,98968.64
2023-11-07T12:04:31.954Z,98963.47
2023-11-07T12:07:10.861Z,98964.04
2023-11-07T12:09:45.205Z,98959.23
2023-11-07T12:12:16.103Z,98959.03
2023-11-07T12:14:57.170Z,98955.23
2023-11-07T12:17:29.353Z,98961.92
2023-11-07T12:20:06.663Z,98957.83
2023-11-07T12:22:34.689Z,98955.92
2023-11-07T12:25:18.684Z,98958.98
2023-11-07T12:28:06.302Z,98960.41
2023-11-07T12:30:35.051Z,98957.02
2023-11-07T12:33:11.274Z,98956.20
2023-11-07T12:35:39.404Z,98951.58
2023-11-07T12:38:08.201Z,98946.61
2023-11-07T12:40:36.869Z,98950.52
2023-11-07T12:43:07.383Z,98948.36
2023-11-07T12:45:39.254Z,98943.51
2023-11-07T12:48:10.317Z,98947.10
2023-11-07T12:50:47.233Z,98947.98
2023-11-07T12:53:18.494Z,98942.79
2023-11-07T12:55:52.584Z,98942.61
2023-11-07T12:58:32.421Z,98946.70
2023-11-07T13:01:01.456Z,98946.41
2023-11-07T13:03:32.208Z,98943.48
2023-11-07T13:06:15.403Z,98945.56
2023-11-07T13:08:44.963Z,98945.63
2023-11-07T13:11:13.085Z,98943.85
2023-11-07T13:13:41.396Z,98943.52
2023-11-07T13:16:08.593Z,98945.92
2023-11-07T13:18:37.650Z,98949.05
2023-11-07T13:21:05.986Z,98955.59
2023-11-07T13:23:33.070Z,98955.51
2023-11-07T13:26:00.059Z,98948.87
2023-11-07T13:28:29.076Z,98943.45
2023-11-07T13:30:56.307Z,98945.27
2023-11-07T13:33:23.303Z,98947.38
2023-11-07T13:35:50.382Z,98946.92
2023-11-07T13:38:17.734Z,98946.95
2023-11-07T13:40:45.806Z,98945.72
2023-11-07T13:43:13.054Z,98939.65
2023-11-07T13:45:40.116Z,98936.83
2023-11-07T13:48:07.349Z,98935.02
2023-11-07T13:50:34.354Z,98934.34
2023-11-07T13:53:01.400Z,98934.27
2023-11-07T13:55:28.605Z,98931.64
2023-11-07T13:57:55.842Z,98935.23
2023-11-07T14:00:23.587Z,98937.52
2023-11-07T14:02:53.566Z,98934.48
2023-11-07T14:05:22.010Z,98933.34
2023-11-07T14:07:50.988Z,98932.09
2023-11-07T14:10:22.129Z,98934.88
2023-11-07T14:12:52.968Z,98940.53
2023-11-07T14:15:28.646Z,98937.98
2023-11-07T14:17:55.660Z,98937.98
2023-11-07T14:20:24.149Z,98938.68
2023-11-07T14:22:54.216Z,98936.52
2023-11-07T14:25:21.185Z,98936.20
2023-11-07T14:27:48.239Z,98935.50
2023-11-07T14:30:27.619Z,98939.63
2023-11-07T14:33:04.547Z,98936.55
2023-11-07T14:35:31.552Z,98939.72
2023-11-07T14:37:59.009Z,98941.96
2023-11-07T14:40:26.856Z,98941.19
2023-11-07T14:42:55.264Z,98941.64
2023-11-07T14:45:25.075Z,98936.89
2023-11-07T14:47:55.108Z,98936.11
2023-11-07T14:50:23.028Z,98935.45
2023-11-07T14:52:49.986Z,98937.84
2023-11-07T14:55:16.973Z,98941.57
2023-11-07T14:57:44.559Z,98942.88
2023-11-07T15:00:25.016Z,98945.14
2023-11-07T15:02:53.620Z,98946.79
2023-11-07T15:05:20.659Z,98949.77
2023-11-07T15:07:47.601Z,98949.27
2023-11-07T15:10:14.625Z,98951.73
2023-11-07T15:12:41.609Z,98950.92
2023-11-07T15:15:10.913Z,98955.46
2023-11-07T15:17:39.196Z,98958.09
2023-11-07T15:20:10.398Z,98960.16
2023-11-07T15:22:37.576Z,98962.14
2023-11-07T15:25:12.274Z,98960.79
2023-11-07T15:27:44.312Z,98961.11
2023-11-07T15:30:16.862Z,98962.51
2023-11-07T15:32:55.321Z,98967.27
2023-11-07T15:35:22.900Z,98965.30
2023-11-07T15:37:49.807Z,98969.67
2023-11-07T15:40:20.374Z,98970.27
2023-11-07T15:42:49.028Z,98970.97
2023-11-07T15:45:18.882Z,98972.45
2023-11-07T15:47:46.651Z,98975.91
2023-11-07T15:50:15.667Z,98980.45
2023-11-07T15:53:00.088Z,98980.64
2023-11-07T15:55:36.119Z,98984.33
2023-11-07T15:58:03.161Z,98988.60
2023-11-07T16:00:30.432Z,98987.15
2023-11-07T16:02:57.777Z,98989.94
2023-11-07T16:05:28.322Z,98988.27
2023-11-07T16:07:55.416Z,98988.60
2023-11-07T16:10:22.407Z,98991.09
2023-11-07T16:12:51.396Z,98995.25
2023-11-07T16:15:18.636Z,98991.00
2023-11-07T16:17:49.422Z,98992.13
2023-11-07T16:20:21.312Z,98987.55
2023-11-07T16:22:49.251Z,98992.09
2023-11-07T16:25:16.473Z,98996.83
2023-11-07T16:27:43.624Z,98997.45
2023-11-07T16:30:11.541Z,98998.06
2023-11-07T16:32:38.752Z,98996.41
2023-11-07T16:35:05.963Z,98997.73
2023-11-07T16:37:36.335Z,99001.72
2023-11-07T16:40:08.897Z,98997.98
2023-11-07T16:42:36.635Z,98998.98
2023-11-07T16:45:08.885Z,98996.91
2023-11-07T16:47:36.896Z,98997.61
2023-11-07T16:50:04.119Z,98996.98
2023-11-07T16:52:31.073Z,99000.21
2023-11-07T16:54:58.009Z,99003.19
2023-11-07T16:57:25.014Z,99003.91
2023-11-07T16:59:52.704Z,99004.43
2023-11-07T17:02:20.195Z,99004.79
2023-11-07T17:04:47.385Z,99006.15
2023-11-07T17:07:14.849Z,99009.55
2023-11-07T17:09:42.119Z,99013.58
2023-11-07T17:12:09.107Z,99013.73
2023-11-07T17:14:37.543Z,99014.08
2023-11-07T17:17:05.529Z,99012.73
2023-11-07T17:19:32.549Z,99014.68
2023-11-07T17:21:59.529Z,99014.77
2023-11-07T17:24:27.890Z,99019.74
2023-11-07T17:26:55.389Z,99022.81
2023-11-07T17:29:22.683Z,99023.92
2023-11-07T17:31:49.871Z,99022.23
2023-11-07T17:34:17.209Z,99023.38
2023-11-07T17:36:46.427Z,99030.80
2023-11-07T17:39:17.383Z,99031.70
2023-11-07T17:41:45.558Z,99035.83
2023-11-07T17:44:14.766Z,99033.96
2023-11-07T17:46:43.010Z,99034.44
2023-11-07T17:49:10.834Z,99031.20
2023-11-07T17:51:42.745Z,99027.61
2023-11-07T17:54:11.618Z,99025.84
2023-11-07T17:56:41.164Z,99031.52
2023-11-07T17:59:11.631Z,99027.88
2023-11-07T18:01:39.879Z,99028.61
2023-11-07T18:04:07.198Z,99032.95
2023-11-07T18:06:34.548Z,99028.88
2023-11-07T18:09:01.676Z,99032.92
2023-11-07T18:11:33.749Z,99037.19
2023-11-07T18:14:00.934Z,99037.97
2023-11-07T18:16:28.116Z,99038.70
2023-11-07T18:18:58.383Z,99042.44
2023-11-07T18:21:27.912Z,99046.70
2023-11-07T18:23:55.802Z,99047.63
2023-11-07T18:26:23.475Z,99049.52
2023-11-07T18:28:51.050Z,99054.31
2023-11-07T18:31:18.281Z,99050.27
2023-11-07T18:33:48.684Z,99050.21
2023-11-07T18:36:15.751Z,99048.26
2023-11-07T18:38:42.812Z,99047.58
2023-11-07T18:41:09.697Z,99045.34
2023-11-07T18:43:37.665Z,99045.58
2023-11-07T18:46:05.650Z,99045.19
2023-11-07T18:48:33.675Z,99044.60
2023-11-07T18:51:00.794Z,99047.34
2023-11-07T18:53:40.676Z,99048.22
2023-11-07T18:56:12.946Z,99048.36
2023-11-07T18:58:39.989Z,99046.03
2023-11-07T19:01:08.608Z,99039.98
2023-11-07T19:03:35.868Z,99037.23
2023-11-07T19:06:03.595Z,99035.59
2023-11-07T19:08:31.477Z,99035.77
2023-11-07T19:11:00.053Z,99035.73
2023-11-07T19:13:27.059Z,99034.30
2023-11-07T19:15:54.961Z,99027.83
2023-11-07T19:18:23.052Z,99024.92
2023-11-07T19:20:50.095Z,99026.02
2023-11-07T19:23:19.505Z,99026.02
2023-11-07T19:25:47.143Z,99027.98
2023-11-07T19:28:14.155Z,99027.56
2023-11-07T19:30:41.173Z,99021.25
2023-11-07T19:33:09.468Z,99024.69
2023-11-07T19:35:36.719Z,99023.09
2023-11-07T19:38:03.603Z,99024.52
2023-11-07T19:40:32.008Z,99022.08
2023-11-07T19:42:59.473Z,99017.77
2023-11-07T19:45:26.725Z,99010.63
2023-11-07T19:47:53.652Z,99011.80
2023-11-07T19:50:20.944Z,99006.66
2023-11-07T19:52:54.301Z,99007.61
2023-11-07T19:55:29.831Z,99003.05
2023-11-07T19:57:56.820Z,99002.17
2023-11-07T20:00:27.238Z,98998.11
2023-11-07T20:02:54.566Z,98995.91
2023-11-07T20:05:21.913Z,98995.17
2023-11-07T20:07:55.933Z,98996.54
2023-11-07T20:10:25.289Z,98996.58
2023-11-07T20:12:52.836Z,99001.65
2023-11-07T20:15:20.007Z,99003.34
2023-11-07T20:17:47.351Z,99004.42
2023-11-07T20:20:15.190Z,99002.96
2023-11-07T20:22:44.172Z,99006.36
2023-11-07T20:25:11.478Z,99006.10
2023-11-07T20:27:39.272Z,99007.27
2023-11-07T20:30:08.342Z,99010.48
2023-11-07T20:32:35.314Z,99011.71
2023-11-07T20:35:03.058Z,99013.83
2023-11-07T20:37:30.085Z,99014.83
2023-11-07T20:39:57.314Z,99013.79
2023-11-07T20:42:25.809Z,99012.23
2023-11-07T20:45:00.564Z,99008.45
2023-11-07T20:47:31.563Z,99005.35
2023-11-07T20:50:06.576Z,99002.66
2023-11-07T20:52:35.994Z,99000.30
2023-11-07T20:55:03.178Z,98995.12
2023-11-07T20:57:33.211Z,98984.44
2023-11-07T21:00:00.227Z,98982.50
2023-11-07T21:02:28.098Z,98982.89
2023-11-07T21:04:55.345Z,98984.95
2023-11-07T21:07:22.954Z,98985.77
2023-11-07T21:09:51.239Z,98988.59
2023-11-07T21:12:19.572Z,98988.22
2023-11-07T21:14:46.612Z,98987.42
2023-11-07T21:17:13.612Z,98991.23
2023-11-07T21:19:41.371Z,98994.83
2023-11-07T21:22:08.471Z,98998.90
2023-11-07T21:24:35.607Z,99000.80
2023-11-07T21:27:04.204Z,99002.03
2023-11-07T21:29:33.423Z,99003.16
2023-11-07T21:32:00.405Z,99001.80
2023-11-07T21:34:27.741Z,99002.54
2023-11-07T21:36:55.248Z,99003.30
2023-11-07T21:39:23.634Z,99002.06
2023-11-07T21:41:51.371Z,98999.20
2023-11-07T21:44:22.178Z,98997.59
2023-11-07T21:46:49.127Z,98994.88
2023-11-07T21:49:16.349Z,98996.35
2023-11-07T21:51:43.972Z,98995.54
2023-11-07T21:54:11.778Z,98994.85
2023-11-07T21:56:39.520Z,98993.98
2023-11-07T21:59:09.493Z,98991.67
2023-11-07T22:01:36.486Z,98988.31
2023-11-07T22:04:05.801Z,98989.50
2023-11-07T22:06:33.117Z,98991.34
2023-11-07T22:09:00.272Z,98991.22
2023-11-07T22:11:27.215Z,98988.73
2023-11-07T22:13:56.987Z,98987.23
2023-11-07T22:16:23.799Z,98990.86
2023-11-07T22:18:50.579Z,98993.98
2023-11-07T22:21:18.425Z,98995.41
2023-11-07T22:23:45.708Z,98994.44
2023-11-07T22:26:13.127Z,98989.73
2023-11-07T22:28:40.586Z,98987.20
2023-11-07T22:31:07.606Z,98989.17
2023-11-07T22:33:34.600Z,98985.29
2023-11-07T22:36:01.691Z,98981.31
2023-11-07T22:38:28.522Z,98975.26
2023-11-07T22:40:55.741Z,98969.90
2023-11-07T22:43:22.768Z,98971.83
2023-11-07T22:45:49.833Z,98972.80
2023-11-07T22:48:19.316Z,98971.35
2023-11-07T22:50:46.780Z,98963.38
2023-11-07T22:53:14.387Z,98968.82
2023-11-07T22:55:41.392Z,98971.72
2023-11-07T22:58:08.737Z,98970.89
2023-11-07T23:00:38.864Z,98969.80
2023-11-07T23:03:14.126Z,98964.96
2023-11-07T23:05:42.440Z,98967.05
2023-11-07T23:08:10.284Z,98959.64
2023-11-07T23:10:38.352Z,98959.05
2023-11-07T23:13:08.775Z,98954.15
2023-11-07T23:15:39.509Z,98949.44
2023-11-07T23:18:07.792Z,98942.80
2023-11-07T23:20:35.849Z,98939.19
2023-11-07T23:23:03.567Z,98941.76
2023-11-07T23:25:30.544Z,98938.15
2023-11-07T23:27:57.427Z,98934.39
2023-11-07T23:30:24.317Z,98930.23
2023-11-07T23:32:51.678Z,98925.52
2023-11-07T23:35:18.947Z,98918.77
2023-11-07T23:37:46.030Z,98914.13
2023-11-07T23:40:13.343Z,98922.44
2023-11-07T23:42:43.814Z,98940.70
2023-11-07T23:45:11.134Z,98939.04
2023-11-07T23:47:40.351Z,98939.08
2023-11-07T23:50:08.065Z,98940.31
2023-11-07T23:52:35.672Z,98937.52
2023-11-07T23:55:03.592Z,98936.60
2023-11-07T23:57:30.895Z,98930.91
2023-11-07T23:59:57.831Z,98927.26
